LFRSLFRZ

Guest
Details From LFRS - Nantes Atlantique
To LFRZ - Saint Nazaire Montoir
Flight Number -
Tags Generated
Created
Modified
Stats Distance 24 nm / 45 km
Max Altitude 0 ft / 0 m
Waypoints 2
Social Downloads 2
Likes 0
Share VATSIM

Download

Looking for another format? Having issues loading an existing format? Contact us
Advertisement - Login to hide

Notes

Generated

Route

LFRS LFRZ

ID Type Via Altitude Latitude Longitude Leg Dist Tot Dist Heading (true) Name
O LFRS APT - 0 ft / 0 m 47.16048˚ -1.61493˚ - 0 nm - Nantes_Atlantique
O LFRZ APT - 0 ft / 0 m 47.30911˚ -2.16443˚ 24 nm 24 nm 292° / 292° -

Altitude Profile

Advertisement - Login to hide

LFRS

Details ICAO LFRS (NTE)
Name Nantes_Atlantique
Region France
Timezone Europe/Paris (UTC+2.0)
Stats Elevation 89 ft / 27 m (AMSL)
Location 47.156040° -1.611186°
Runways 2
Magnetic Variation 0.452° W

METAR

LFRS 221930Z AUTO 02006KT 350V050 CAVOK 21/11 Q1015 NOSIG

Decode

TAF

TAF LFRS 221700Z 2218/2324 36005KT CAVOK TEMPO 2314/2320 4500 -SHRA SCT050CB PROB30 TEMPO 2315/2318 VRB15G25KT 3000 TSRA BKN050CB

Decode

Departure Runways

ID Width Length Bearing (true) Bearing (mag) Surface Threshold Offset Overrun Length
03 148 ft / 45 m 9,526 ft / 2,903 m 27.35° 27.80° Asphalt 0 ft / 0 m 0 ft / 0 m
13 100 ft / 30 m 1,999 ft / 609 m 125.55° 126.00° Concrete 0 ft / 0 m 0 ft / 0 m
21 148 ft / 45 m 9,526 ft / 2,903 m 207.37° 207.82° Asphalt 689 ft / 210 m 0 ft / 0 m
31 100 ft / 30 m 1,999 ft / 609 m 305.56° 306.01° Concrete 0 ft / 0 m 0 ft / 0 m

LFRZ

Details ICAO LFRZ (SNR)
Name Saint Nazaire Montoir
Region France
Timezone Europe/Paris (UTC+2.0)
Stats Elevation 13 ft / 4 m (AMSL)
Location 47.312188° -2.149179°
Runways 1
Magnetic Variation 0.637° W

METAR

Not found

TAF

TAF LFRZ 221700Z 2218/2318 36005KT CAVOK PROB30 TEMPO 2314/2318 4500 -SHRA SCT050CB

Decode

Destination Runways

ID Width Length Bearing (true) Bearing (mag) Surface Threshold Offset Overrun Length
08 148 ft / 45 m 7,872 ft / 2,400 m 73.42° 74.06° Asphalt 500 ft / 152 m 0 ft / 0 m
26 148 ft / 45 m 7,872 ft / 2,400 m 253.44° 254.08° Asphalt 500 ft / 152 m 0 ft / 0 m

Approach Navaids

Runway Type Ident Frequency Range Bearing (true) Bearing (mag) Slope Elevation
26 Localiser MT 108.50 MHz 18 nm / 33 km 253.41° 254.05° - 12 ft / 4 m (AMSL)
26 Glidescope MT 108.50 MHz 10 nm / 19 km 253.43° 254.07° 3.00° 12 ft / 4 m (AMSL)
26 DME MT 108.50 MHz 18 nm / 33 km - - - 16 ft / 5 m (AMSL)

Popular Alternatives